createdAt,value
2018-05-07T00:00:28.059Z,0.00
2018-05-07T00:02:20.918Z,0.00
2018-05-07T00:03:20.889Z,0.00
2018-05-07T00:05:13.751Z,0.00
2018-05-07T00:06:13.791Z,0.00
2018-05-07T00:08:06.577Z,0.00
2018-05-07T00:09:06.591Z,0.00
2018-05-07T00:10:59.420Z,0.00
2018-05-07T00:11:59.395Z,0.00
2018-05-07T00:13:52.240Z,0.00
2018-05-07T00:14:52.224Z,0.00
2018-05-07T00:16:45.080Z,0.00
2018-05-07T00:17:45.055Z,0.00
2018-05-07T00:19:37.906Z,0.00
2018-05-07T00:20:37.957Z,0.00
2018-05-07T00:22:30.744Z,0.00
2018-05-07T00:23:30.716Z,0.00
2018-05-07T00:25:23.571Z,0.00
2018-05-07T00:26:23.551Z,0.00
2018-05-07T00:28:16.416Z,0.00
2018-05-07T00:29:16.387Z,0.00
2018-05-07T00:31:09.234Z,0.00
2018-05-07T00:32:09.213Z,0.00
2018-05-07T00:34:02.072Z,0.00
2018-05-07T00:35:02.055Z,0.00
2018-05-07T00:36:54.900Z,0.00
2018-05-07T00:37:54.883Z,0.00
2018-05-07T00:39:47.741Z,0.00
2018-05-07T00:40:47.714Z,0.00
2018-05-07T00:42:40.565Z,0.00
2018-05-07T00:43:40.544Z,0.00
2018-05-07T00:45:33.406Z,0.00
2018-05-07T00:46:33.378Z,0.00
2018-05-07T00:48:26.226Z,0.00
2018-05-07T00:49:26.206Z,0.00
2018-05-07T00:51:19.072Z,0.00
2018-05-07T00:52:19.038Z,0.00
2018-05-07T00:54:11.889Z,0.00
2018-05-07T00:55:11.870Z,0.00
2018-05-07T00:57:04.726Z,0.00
2018-05-07T00:58:04.699Z,0.00
2018-05-07T00:59:57.557Z,0.00
2018-05-07T01:00:57.532Z,0.00
2018-05-07T01:02:50.402Z,0.00
2018-05-07T01:03:50.373Z,0.00
2018-05-07T01:05:43.223Z,0.00
2018-05-07T01:06:43.205Z,0.00
2018-05-07T01:08:36.067Z,0.00
2018-05-07T01:09:36.035Z,0.00
2018-05-07T01:11:28.887Z,0.00
2018-05-07T01:12:28.865Z,0.00
2018-05-07T01:14:21.723Z,0.00
2018-05-07T01:15:21.695Z,0.00
2018-05-07T01:17:14.545Z,0.00
2018-05-07T01:18:14.532Z,0.00
2018-05-07T01:20:07.384Z,0.00
2018-05-07T01:21:07.355Z,0.00
2018-05-07T01:23:00.206Z,0.00
2018-05-07T01:24:00.185Z,0.00
2018-05-07T01:25:53.044Z,0.00
2018-05-07T01:26:53.014Z,0.00
2018-05-07T01:28:45.862Z,0.00
2018-05-07T01:29:45.842Z,0.00
2018-05-07T01:31:38.704Z,0.00
2018-05-07T01:32:38.677Z,0.00
2018-05-07T01:34:31.528Z,0.00
2018-05-07T01:35:31.506Z,0.00
2018-05-07T01:37:24.362Z,0.00
2018-05-07T01:38:24.335Z,0.00
2018-05-07T01:40:17.184Z,0.00
2018-05-07T01:41:17.165Z,0.00
2018-05-07T01:43:10.018Z,0.00
2018-05-07T01:44:09.991Z,0.00
2018-05-07T01:46:02.845Z,0.00
2018-05-07T01:47:02.826Z,0.00
2018-05-07T01:48:55.683Z,0.00
2018-05-07T01:49:55.664Z,0.00
2018-05-07T01:51:48.498Z,0.00
2018-05-07T01:52:48.491Z,0.00
2018-05-07T01:54:41.343Z,0.00
2018-05-07T01:55:41.315Z,0.00
2018-05-07T01:57:34.164Z,0.00
2018-05-07T01:58:34.144Z,0.00
2018-05-07T02:00:27.004Z,0.00
2018-05-07T02:01:26.975Z,0.00
2018-05-07T02:03:19.826Z,0.00
2018-05-07T02:04:19.804Z,0.00
2018-05-07T02:06:12.661Z,0.00
2018-05-07T02:07:12.634Z,0.00
2018-05-07T02:09:05.481Z,0.00
2018-05-07T02:10:05.466Z,0.00
2018-05-07T02:11:58.319Z,0.00
2018-05-07T02:12:58.291Z,0.00
2018-05-07T02:14:51.147Z,0.00
2018-05-07T02:15:51.121Z,0.00
2018-05-07T02:17:43.979Z,0.00
2018-05-07T02:18:43.956Z,0.00
2018-05-07T02:20:36.807Z,0.00
2018-05-07T02:21:36.785Z,0.00
2018-05-07T02:23:29.642Z,0.00
2018-05-07T02:24:29.621Z,0.00
2018-05-07T02:26:22.467Z,0.00
2018-05-07T02:27:22.447Z,0.00
2018-05-07T02:29:15.307Z,0.00
2018-05-07T02:30:15.275Z,0.00
2018-05-07T02:32:08.128Z,0.00
2018-05-07T02:33:08.109Z,0.00
2018-05-07T02:35:00.990Z,0.00
2018-05-07T02:36:00.935Z,0.00
2018-05-07T02:37:53.784Z,0.00
2018-05-07T02:38:53.860Z,0.00
2018-05-07T02:40:46.627Z,0.00
2018-05-07T02:41:46.598Z,0.00
2018-05-07T02:43:39.440Z,0.00
2018-05-07T02:44:39.427Z,0.00
2018-05-07T02:46:32.285Z,0.00
2018-05-07T02:47:32.256Z,0.00
2018-05-07T02:49:25.110Z,0.00
2018-05-07T02:50:25.091Z,0.00
2018-05-07T02:52:17.946Z,0.00
2018-05-07T02:53:17.919Z,0.00
2018-05-07T02:55:10.770Z,0.00
2018-05-07T02:56:10.749Z,0.00
2018-05-07T02:58:03.606Z,0.00
2018-05-07T02:59:03.579Z,0.00
2018-05-07T03:00:56.426Z,0.00
2018-05-07T03:01:56.404Z,0.00
2018-05-07T03:03:49.262Z,0.00
2018-05-07T03:04:49.234Z,0.00
2018-05-07T03:06:42.085Z,0.00
2018-05-07T03:07:42.063Z,0.00
2018-05-07T03:09:34.920Z,0.00
2018-05-07T03:10:34.898Z,0.00
2018-05-07T03:12:27.742Z,0.00
2018-05-07T03:13:27.721Z,0.00
2018-05-07T03:15:20.580Z,0.00
2018-05-07T03:16:20.555Z,0.00
2018-05-07T03:18:13.406Z,0.00
2018-05-07T03:19:13.384Z,0.00
2018-05-07T03:21:06.238Z,0.00
2018-05-07T03:22:06.214Z,0.00
2018-05-07T03:23:59.059Z,0.00
2018-05-07T03:24:59.037Z,0.00
2018-05-07T03:26:51.899Z,0.00
2018-05-07T03:27:51.870Z,0.00
2018-05-07T03:29:44.718Z,0.00
2018-05-07T03:30:44.700Z,0.00
2018-05-07T03:32:37.556Z,0.00
2018-05-07T03:33:37.527Z,0.00
2018-05-07T03:35:30.380Z,0.00
2018-05-07T03:36:30.354Z,0.00
2018-05-07T03:38:23.213Z,0.00
2018-05-07T03:39:23.192Z,0.00
2018-05-07T03:41:16.035Z,0.00
2018-05-07T03:42:16.014Z,0.00
2018-05-07T03:44:08.877Z,0.00
2018-05-07T03:45:08.844Z,0.00
2018-05-07T03:47:01.706Z,0.00
2018-05-07T03:48:01.671Z,0.00
2018-05-07T03:49:54.526Z,5.63
2018-05-07T03:50:54.498Z,5.63
2018-05-07T03:52:47.349Z,5.63
2018-05-07T03:53:47.326Z,5.63
2018-05-07T03:55:40.185Z,5.63
2018-05-07T03:56:40.156Z,5.63
2018-05-07T03:58:33.006Z,11.25
2018-05-07T03:59:32.984Z,11.25
2018-05-07T04:01:25.851Z,11.25
2018-05-07T04:02:25.820Z,16.88
2018-05-07T04:04:18.670Z,16.88
2018-05-07T04:05:18.649Z,16.88
2018-05-07T04:07:11.507Z,22.50
2018-05-07T04:08:11.485Z,22.50
2018-05-07T04:10:04.328Z,28.13
2018-05-07T04:11:04.307Z,33.75
2018-05-07T04:12:57.167Z,33.75
2018-05-07T04:13:57.144Z,39.38
2018-05-07T04:15:49.990Z,45.00
2018-05-07T04:16:49.968Z,50.63
2018-05-07T04:18:42.829Z,56.25
2018-05-07T04:19:42.799Z,56.25
2018-05-07T04:21:35.654Z,61.88
2018-05-07T04:22:35.632Z,67.50
2018-05-07T04:24:28.489Z,78.75
2018-05-07T04:25:28.464Z,84.38
2018-05-07T04:27:21.317Z,90.00
2018-05-07T04:28:21.299Z,90.00
2018-05-07T04:30:14.156Z,101.25
2018-05-07T04:31:14.128Z,106.88
2018-05-07T04:33:06.979Z,118.13
2018-05-07T04:34:06.961Z,123.75
2018-05-07T04:35:59.820Z,129.38
2018-05-07T04:36:59.795Z,135.00
2018-05-07T04:38:52.650Z,151.88
2018-05-07T04:39:52.627Z,157.50
2018-05-07T04:41:45.489Z,168.75
2018-05-07T04:42:45.464Z,174.38
2018-05-07T04:44:38.313Z,196.88
2018-05-07T04:45:38.298Z,208.13
2018-05-07T04:47:31.168Z,225.00
2018-05-07T04:48:31.144Z,236.25
2018-05-07T04:50:24.005Z,253.13
2018-05-07T04:51:23.985Z,258.75
2018-05-07T04:53:16.851Z,258.75
2018-05-07T04:54:16.828Z,264.38
2018-05-07T04:56:09.683Z,264.38
2018-05-07T04:57:09.666Z,270.00
2018-05-07T04:59:02.531Z,281.25
2018-05-07T05:00:02.504Z,286.88
2018-05-07T05:01:55.364Z,303.75
2018-05-07T05:02:55.344Z,309.38
2018-05-07T05:04:48.212Z,326.25
2018-05-07T05:05:48.189Z,331.88
2018-05-07T05:07:41.050Z,343.13
2018-05-07T05:08:41.035Z,343.13
2018-05-07T05:10:33.903Z,348.75
2018-05-07T05:11:33.877Z,354.38
2018-05-07T05:13:26.743Z,360.00
2018-05-07T05:14:26.730Z,365.63
2018-05-07T05:16:19.603Z,388.13
2018-05-07T05:17:19.580Z,388.13
2018-05-07T05:19:12.480Z,388.13
2018-05-07T05:20:12.419Z,382.50
2018-05-07T05:22:05.295Z,376.88
2018-05-07T05:23:05.272Z,382.50
2018-05-07T05:24:58.139Z,399.38
2018-05-07T05:25:58.121Z,416.25
2018-05-07T05:27:50.989Z,427.50
2018-05-07T05:28:50.972Z,421.88
2018-05-07T05:30:43.838Z,405.00
2018-05-07T05:31:43.838Z,399.38
2018-05-07T05:33:36.697Z,416.25
2018-05-07T05:34:36.676Z,421.88
2018-05-07T05:36:29.544Z,416.25
2018-05-07T05:37:29.531Z,416.25
2018-05-07T05:39:22.404Z,416.25
2018-05-07T05:40:22.385Z,410.63
2018-05-07T05:42:15.252Z,410.63
2018-05-07T05:43:15.236Z,416.25
2018-05-07T05:45:08.112Z,427.50
2018-05-07T05:46:08.093Z,438.75
2018-05-07T05:48:00.960Z,511.88
2018-05-07T05:49:00.946Z,922.50
2018-05-07T05:50:53.825Z,1366.88
2018-05-07T05:51:53.803Z,1333.13
2018-05-07T05:53:46.666Z,1378.13
2018-05-07T05:54:46.653Z,1451.25
2018-05-07T05:56:39.529Z,1440.00
2018-05-07T05:57:39.505Z,1575.00
2018-05-07T05:59:32.372Z,1575.00
2018-05-07T06:00:32.357Z,1546.88
2018-05-07T06:02:26.806Z,1535.63
2018-05-07T06:03:25.212Z,1614.38
2018-05-07T06:05:18.082Z,1546.88
2018-05-07T06:06:18.066Z,1608.75
2018-05-07T06:08:10.954Z,1608.75
2018-05-07T06:09:10.923Z,1575.00
2018-05-07T06:11:03.797Z,1608.75
2018-05-07T06:12:03.781Z,1648.13
2018-05-07T06:13:56.660Z,1805.63
2018-05-07T06:14:56.820Z,1912.50
2018-05-07T06:16:49.520Z,1800.00
2018-05-07T06:17:49.491Z,1861.88
2018-05-07T06:19:42.354Z,1974.38
2018-05-07T06:20:42.350Z,1974.38
2018-05-07T06:22:35.226Z,2053.13
2018-05-07T06:23:35.197Z,2143.13
2018-05-07T06:25:28.065Z,1816.88
2018-05-07T06:26:28.052Z,1929.38
2018-05-07T06:28:20.933Z,2064.38
2018-05-07T06:29:20.908Z,2103.75
2018-05-07T06:31:13.785Z,2013.75
2018-05-07T06:32:13.773Z,2036.25
2018-05-07T06:34:06.652Z,2210.63
2018-05-07T06:35:06.626Z,2165.63
2018-05-07T06:36:59.493Z,2148.75
2018-05-07T06:37:59.528Z,2255.63
2018-05-07T06:39:52.364Z,2137.50
2018-05-07T06:40:52.339Z,2311.88
2018-05-07T06:42:45.206Z,2103.75
2018-05-07T06:43:45.196Z,2081.25
2018-05-07T06:45:38.145Z,2137.50
2018-05-07T06:46:38.053Z,2221.88
2018-05-07T06:48:30.924Z,2081.25
2018-05-07T06:49:30.917Z,2255.63
2018-05-07T06:51:23.800Z,1923.75
2018-05-07T06:52:23.778Z,1850.63
2018-05-07T06:54:16.647Z,2356.88
2018-05-07T06:55:16.639Z,2115.00
2018-05-07T06:57:09.518Z,1918.13
2018-05-07T06:58:09.498Z,1968.75
2018-05-07T07:00:02.368Z,1513.13
2018-05-07T07:01:02.364Z,1361.25
2018-05-07T07:02:55.443Z,1209.38
2018-05-07T07:03:55.222Z,1080.00
2018-05-07T07:05:48.093Z,720.00
2018-05-07T07:06:48.081Z,669.38
2018-05-07T07:08:41.078Z,725.63
2018-05-07T07:09:40.945Z,810.00
2018-05-07T07:11:33.819Z,635.63
2018-05-07T07:12:33.810Z,585.00
2018-05-07T07:14:26.697Z,568.13
2018-05-07T07:15:26.675Z,556.88
2018-05-07T07:17:19.548Z,579.38
2018-05-07T07:18:19.539Z,601.88
2018-05-07T07:20:12.493Z,585.00
2018-05-07T07:21:12.402Z,579.38
2018-05-07T07:23:05.276Z,579.38
2018-05-07T07:24:05.267Z,590.63
2018-05-07T07:25:58.152Z,601.88
2018-05-07T07:26:58.130Z,585.00
2018-05-07T07:28:51.004Z,573.75
2018-05-07T07:29:50.995Z,573.75
2018-05-07T07:31:43.882Z,568.13
2018-05-07T07:32:43.860Z,568.13
2018-05-07T07:34:36.743Z,568.13
2018-05-07T07:35:36.728Z,562.50
2018-05-07T07:37:29.616Z,568.13
2018-05-07T07:38:29.592Z,562.50
2018-05-07T07:40:22.538Z,562.50
2018-05-07T07:41:22.472Z,562.50
2018-05-07T07:43:15.360Z,568.13
2018-05-07T07:44:15.338Z,562.50
2018-05-07T07:46:08.213Z,568.13
2018-05-07T07:47:08.245Z,568.13
2018-05-07T07:49:01.097Z,562.50
2018-05-07T07:50:01.073Z,562.50
2018-05-07T07:51:53.952Z,562.50
2018-05-07T07:52:53.946Z,568.13
2018-05-07T07:54:46.836Z,556.88
2018-05-07T07:55:46.813Z,556.88
2018-05-07T07:57:39.690Z,556.88
2018-05-07T07:58:39.683Z,551.25
2018-05-07T08:00:32.574Z,551.25
2018-05-07T08:01:32.551Z,551.25
2018-05-07T08:03:25.430Z,545.63
2018-05-07T08:04:25.460Z,545.63
2018-05-07T08:06:18.314Z,540.00
2018-05-07T08:07:18.293Z,540.00
2018-05-07T08:09:11.171Z,534.38
2018-05-07T08:10:11.164Z,534.38
2018-05-07T08:12:04.120Z,528.75
2018-05-07T08:13:04.039Z,523.13
2018-05-07T08:14:56.922Z,511.88
2018-05-07T08:15:56.911Z,506.25
2018-05-07T08:17:49.799Z,489.38
2018-05-07T08:18:49.780Z,478.13
2018-05-07T08:20:42.660Z,455.63
2018-05-07T08:21:42.653Z,450.00
2018-05-07T08:23:35.550Z,433.13
2018-05-07T08:24:35.528Z,421.88
2018-05-07T08:26:28.410Z,416.25
2018-05-07T08:27:28.403Z,410.63
2018-05-07T08:29:21.294Z,405.00
2018-05-07T08:30:21.315Z,399.38
2018-05-07T08:32:14.157Z,393.75
2018-05-07T08:33:14.150Z,393.75
2018-05-07T08:35:07.042Z,382.50
2018-05-07T08:36:07.023Z,382.50
2018-05-07T08:37:59.903Z,376.88
2018-05-07T08:38:59.899Z,376.88
2018-05-07T08:40:52.796Z,371.25
2018-05-07T08:41:52.773Z,365.63
2018-05-07T08:43:45.654Z,360.00
2018-05-07T08:44:45.652Z,360.00
2018-05-07T08:46:38.545Z,354.38
2018-05-07T08:47:38.525Z,354.38
2018-05-07T08:49:31.410Z,348.75
2018-05-07T08:50:31.404Z,348.75
2018-05-07T08:52:24.289Z,343.13
2018-05-07T08:53:24.280Z,337.50
2018-05-07T08:55:17.161Z,337.50
2018-05-07T08:56:17.155Z,337.50
2018-05-07T08:58:10.044Z,337.50
2018-05-07T08:59:10.032Z,331.88
2018-05-07T09:01:02.918Z,331.88
2018-05-07T09:02:02.928Z,326.25
2018-05-07T09:03:55.804Z,320.63
2018-05-07T09:04:55.788Z,320.63
2018-05-07T09:06:48.670Z,315.00
2018-05-07T09:07:48.665Z,315.00
2018-05-07T09:09:41.574Z,315.00
2018-05-07T09:10:41.547Z,309.38
2018-05-07T09:12:34.427Z,309.38
2018-05-07T09:13:34.446Z,303.75
2018-05-07T09:15:27.320Z,303.75
2018-05-07T09:16:27.301Z,303.75
2018-05-07T09:18:20.183Z,298.13
2018-05-07T09:19:20.178Z,298.13
2018-05-07T09:21:13.078Z,298.13
2018-05-07T09:22:13.065Z,292.50
2018-05-07T09:24:05.946Z,292.50
2018-05-07T09:25:05.939Z,292.50
2018-05-07T09:26:58.832Z,286.88
2018-05-07T09:27:58.816Z,286.88
2018-05-07T09:29:51.696Z,286.88
2018-05-07T09:30:51.692Z,286.88
2018-05-07T09:32:44.585Z,281.25
2018-05-07T09:33:44.568Z,281.25
2018-05-07T09:35:38.017Z,281.25
2018-05-07T09:36:37.453Z,281.25
2018-05-07T09:38:30.351Z,275.63
2018-05-07T09:39:30.330Z,275.63
2018-05-07T09:41:23.213Z,275.63
2018-05-07T09:42:23.212Z,275.63
2018-05-07T09:44:16.105Z,275.63
2018-05-07T09:45:16.090Z,270.00
2018-05-07T09:47:08.970Z,270.00
2018-05-07T09:48:08.967Z,270.00
2018-05-07T09:50:01.860Z,270.00
2018-05-07T09:51:01.842Z,275.63
2018-05-07T09:52:54.732Z,270.00
2018-05-07T09:53:54.722Z,264.38
2018-05-07T09:55:47.619Z,264.38
2018-05-07T09:56:47.613Z,264.38
2018-05-07T09:58:40.485Z,264.38
2018-05-07T09:59:40.479Z,264.38
2018-05-07T10:01:33.378Z,264.38
2018-05-07T10:02:33.492Z,264.38
2018-05-07T10:04:26.237Z,258.75
2018-05-07T10:05:26.237Z,258.75
2018-05-07T10:07:19.127Z,258.75
2018-05-07T10:08:19.109Z,258.75
2018-05-07T10:10:12.001Z,258.75
2018-05-07T10:11:11.995Z,258.75
2018-05-07T10:13:04.899Z,258.75
2018-05-07T10:14:04.878Z,258.75
2018-05-07T10:15:57.758Z,253.13
2018-05-07T10:16:57.783Z,264.38
2018-05-07T10:18:50.653Z,253.13
2018-05-07T10:19:50.635Z,253.13
2018-05-07T10:21:43.524Z,253.13
2018-05-07T10:22:43.522Z,253.13
2018-05-07T10:24:36.410Z,253.13
2018-05-07T10:25:36.394Z,253.13
2018-05-07T10:27:29.277Z,247.50
2018-05-07T10:28:29.272Z,247.50
2018-05-07T10:30:22.166Z,247.50
2018-05-07T10:31:22.157Z,247.50
2018-05-07T10:33:15.033Z,247.50
2018-05-07T10:34:15.027Z,247.50
2018-05-07T10:36:07.919Z,247.50
2018-05-07T10:37:07.905Z,247.50
2018-05-07T10:39:00.783Z,247.50
2018-05-07T10:40:00.777Z,247.50
2018-05-07T10:41:53.672Z,247.50
2018-05-07T10:42:53.658Z,247.50
2018-05-07T10:44:46.540Z,247.50
2018-05-07T10:45:46.535Z,247.50
2018-05-07T10:47:39.429Z,241.88
2018-05-07T10:48:39.415Z,241.88
2018-05-07T10:50:32.293Z,241.88
2018-05-07T10:51:32.290Z,241.88
2018-05-07T10:53:25.182Z,241.88
2018-05-07T10:54:25.166Z,241.88
2018-05-07T10:56:18.048Z,241.88
2018-05-07T10:57:18.043Z,241.88
2018-05-07T10:59:10.946Z,241.88
2018-05-07T11:00:10.920Z,241.88
2018-05-07T11:02:03.802Z,241.88
2018-05-07T11:03:03.797Z,241.88
2018-05-07T11:04:56.692Z,241.88
2018-05-07T11:05:56.675Z,241.88
2018-05-07T11:07:49.558Z,236.25
2018-05-07T11:08:49.552Z,236.25
2018-05-07T11:10:42.447Z,236.25
2018-05-07T11:11:42.432Z,236.25
2018-05-07T11:13:35.380Z,236.25
2018-05-07T11:14:35.306Z,236.25
2018-05-07T11:16:28.196Z,236.25
2018-05-07T11:17:28.180Z,236.25
2018-05-07T11:19:21.060Z,236.25
2018-05-07T11:20:21.056Z,236.25
2018-05-07T11:22:13.948Z,236.25
2018-05-07T11:23:13.932Z,236.25
2018-05-07T11:25:06.817Z,236.25
2018-05-07T11:26:06.814Z,236.25
2018-05-07T11:27:59.703Z,236.25
2018-05-07T11:28:59.684Z,236.25
2018-05-07T11:30:52.562Z,236.25
2018-05-07T11:31:52.557Z,236.25
2018-05-07T11:33:45.452Z,236.25
2018-05-07T11:34:45.433Z,236.25
2018-05-07T11:36:38.323Z,230.63
2018-05-07T11:37:38.312Z,230.63
2018-05-07T11:39:31.199Z,230.63
2018-05-07T11:40:31.184Z,230.63
2018-05-07T11:42:24.061Z,230.63
2018-05-07T11:43:24.057Z,230.63
2018-05-07T11:45:16.950Z,230.63
2018-05-07T11:46:16.932Z,230.63
2018-05-07T11:48:09.810Z,230.63
2018-05-07T11:49:09.806Z,225.00
2018-05-07T11:51:02.696Z,225.00
2018-05-07T11:52:02.679Z,225.00
2018-05-07T11:53:55.557Z,225.00
2018-05-07T11:54:55.552Z,225.00
2018-05-07T11:56:48.438Z,225.00
2018-05-07T11:57:48.425Z,225.00
2018-05-07T11:59:41.301Z,225.00
2018-05-07T12:00:41.297Z,225.00
2018-05-07T12:02:34.188Z,219.38
2018-05-07T12:03:34.166Z,219.38
2018-05-07T12:05:27.115Z,219.38
2018-05-07T12:06:27.044Z,219.38
2018-05-07T12:08:19.930Z,219.38
2018-05-07T12:09:19.912Z,219.38
2018-05-07T12:11:12.793Z,219.38
2018-05-07T12:12:12.788Z,219.38
2018-05-07T12:14:05.673Z,219.38
2018-05-07T12:15:05.660Z,219.38
2018-05-07T12:16:58.542Z,219.38
2018-05-07T12:17:58.535Z,219.38
2018-05-07T12:19:51.425Z,219.38
2018-05-07T12:20:51.408Z,219.38
2018-05-07T12:22:44.283Z,213.75
2018-05-07T12:23:44.279Z,213.75
2018-05-07T12:25:37.236Z,213.75
2018-05-07T12:26:37.149Z,213.75
2018-05-07T12:28:30.030Z,213.75
2018-05-07T12:29:30.023Z,213.75
2018-05-07T12:31:23.001Z,213.75
2018-05-07T12:32:22.894Z,213.75
2018-05-07T12:34:15.772Z,213.75
2018-05-07T12:35:15.768Z,213.75
2018-05-07T12:37:08.724Z,208.13
2018-05-07T12:38:08.641Z,208.13
2018-05-07T12:40:01.525Z,208.13
2018-05-07T12:41:01.512Z,208.13
2018-05-07T12:42:54.399Z,208.13
2018-05-07T12:43:54.380Z,208.13
2018-05-07T12:45:47.255Z,208.13
2018-05-07T12:46:47.268Z,208.13
2018-05-07T12:48:40.133Z,208.13
2018-05-07T12:49:40.115Z,208.13
2018-05-07T12:51:32.995Z,208.13
2018-05-07T12:52:32.989Z,208.13
2018-05-07T12:54:25.881Z,208.13
2018-05-07T12:55:25.862Z,208.13
2018-05-07T12:57:18.734Z,208.13
2018-05-07T12:58:18.725Z,208.13
2018-05-07T13:00:11.617Z,208.13
2018-05-07T13:01:11.592Z,208.13
2018-05-07T13:03:04.538Z,196.88
2018-05-07T13:04:04.461Z,202.50
2018-05-07T13:05:57.468Z,196.88
2018-05-07T13:06:57.327Z,191.25
2018-05-07T13:08:50.275Z,202.50
2018-05-07T13:09:50.196Z,208.13
2018-05-07T13:11:43.081Z,219.38
2018-05-07T13:12:43.064Z,219.38
2018-05-07T13:14:36.006Z,219.38
2018-05-07T13:15:35.946Z,213.75
2018-05-07T13:17:28.816Z,208.13
2018-05-07T13:18:28.796Z,202.50
2018-05-07T13:20:21.743Z,196.88
2018-05-07T13:21:21.666Z,196.88
2018-05-07T13:23:14.547Z,196.88
2018-05-07T13:24:14.530Z,191.25
2018-05-07T13:26:07.404Z,191.25
2018-05-07T13:27:07.393Z,191.25
2018-05-07T13:29:00.283Z,191.25
2018-05-07T13:30:00.263Z,191.25
2018-05-07T13:31:53.137Z,185.63
2018-05-07T13:32:53.130Z,185.63
2018-05-07T13:34:46.016Z,185.63
2018-05-07T13:35:45.994Z,185.63
2018-05-07T13:37:38.872Z,185.63
2018-05-07T13:38:38.860Z,185.63
2018-05-07T13:40:31.751Z,185.63
2018-05-07T13:41:31.725Z,185.63
2018-05-07T13:43:24.598Z,185.63
2018-05-07T13:44:24.592Z,185.63
2018-05-07T13:46:17.476Z,191.25
2018-05-07T13:47:17.454Z,196.88
2018-05-07T13:49:10.326Z,202.50
2018-05-07T13:50:10.318Z,208.13
2018-05-07T13:52:03.217Z,225.00
2018-05-07T13:53:03.193Z,225.00
2018-05-07T13:54:56.071Z,225.00
2018-05-07T13:55:56.057Z,219.38
2018-05-07T13:57:48.947Z,202.50
2018-05-07T13:58:48.922Z,196.88
2018-05-07T14:00:41.795Z,180.00
2018-05-07T14:01:41.786Z,174.38
2018-05-07T14:03:34.669Z,168.75
2018-05-07T14:04:34.649Z,168.75
2018-05-07T14:06:27.520Z,163.13
2018-05-07T14:07:27.511Z,163.13
2018-05-07T14:09:20.389Z,163.13
2018-05-07T14:10:20.371Z,163.13
2018-05-07T14:12:13.264Z,157.50
2018-05-07T14:13:13.233Z,157.50
2018-05-07T14:15:06.175Z,157.50
2018-05-07T14:16:06.094Z,157.50
2018-05-07T14:17:58.977Z,157.50
2018-05-07T14:18:58.963Z,157.50
2018-05-07T14:20:51.837Z,157.50
2018-05-07T14:21:51.830Z,151.88
2018-05-07T14:23:44.708Z,151.88
2018-05-07T14:24:44.690Z,151.88
2018-05-07T14:26:37.568Z,151.88
2018-05-07T14:27:37.552Z,151.88
2018-05-07T14:29:30.421Z,151.88
2018-05-07T14:30:30.412Z,151.88
2018-05-07T14:32:23.289Z,151.88
2018-05-07T14:33:23.283Z,151.88
2018-05-07T14:35:16.143Z,151.88
2018-05-07T14:36:16.132Z,151.88
2018-05-07T14:38:09.011Z,146.25
2018-05-07T14:39:08.993Z,146.25
2018-05-07T14:41:01.863Z,146.25
2018-05-07T14:42:01.854Z,146.25
2018-05-07T14:43:54.730Z,146.25
2018-05-07T14:44:54.716Z,146.25
2018-05-07T14:46:47.593Z,146.25
2018-05-07T14:47:47.572Z,146.25
2018-05-07T14:49:40.439Z,140.63
2018-05-07T14:50:40.430Z,140.63
2018-05-07T14:52:33.381Z,140.63
2018-05-07T14:53:33.297Z,140.63
2018-05-07T14:55:26.159Z,140.63
2018-05-07T14:56:26.152Z,140.63
2018-05-07T14:58:19.028Z,140.63
2018-05-07T14:59:19.011Z,140.63
2018-05-07T15:01:11.921Z,135.00
2018-05-07T15:02:11.873Z,135.00
2018-05-07T15:04:04.753Z,135.00
2018-05-07T15:05:04.738Z,135.00
2018-05-07T15:06:57.611Z,135.00
2018-05-07T15:07:57.593Z,135.00
2018-05-07T15:09:50.535Z,135.00
2018-05-07T15:10:50.450Z,129.38
2018-05-07T15:12:43.349Z,129.38
2018-05-07T15:13:43.405Z,129.38
2018-05-07T15:15:36.279Z,129.38
2018-05-07T15:16:36.184Z,129.38
2018-05-07T15:18:29.130Z,123.75
2018-05-07T15:19:29.041Z,118.13
2018-05-07T15:21:21.906Z,106.88
2018-05-07T15:22:21.888Z,106.88
2018-05-07T15:24:14.768Z,106.88
2018-05-07T15:25:14.754Z,106.88
2018-05-07T15:27:07.625Z,106.88
2018-05-07T15:28:07.605Z,106.88
2018-05-07T15:30:00.471Z,106.88
2018-05-07T15:31:00.461Z,106.88
2018-05-07T15:32:53.331Z,106.88
2018-05-07T15:33:53.312Z,106.88
2018-05-07T15:35:46.186Z,106.88
2018-05-07T15:36:46.171Z,106.88
2018-05-07T15:38:39.045Z,106.88
2018-05-07T15:39:39.025Z,106.88
2018-05-07T15:41:31.890Z,101.25
2018-05-07T15:42:31.881Z,101.25
2018-05-07T15:44:24.752Z,101.25
2018-05-07T15:45:24.735Z,101.25
2018-05-07T15:47:17.608Z,101.25
2018-05-07T15:48:17.586Z,101.25
2018-05-07T15:50:10.453Z,101.25
2018-05-07T15:51:10.439Z,101.25
2018-05-07T15:53:03.309Z,101.25
2018-05-07T15:54:03.300Z,101.25
2018-05-07T15:55:56.241Z,101.25
2018-05-07T15:56:56.147Z,101.25
2018-05-07T15:58:49.019Z,101.25
2018-05-07T15:59:49.001Z,101.25
2018-05-07T16:01:41.868Z,101.25
2018-05-07T16:02:41.872Z,101.25
2018-05-07T16:04:34.722Z,95.63
2018-05-07T16:05:34.704Z,101.25
2018-05-07T16:07:27.620Z,95.63
2018-05-07T16:08:27.561Z,95.63
2018-05-07T16:10:20.428Z,95.63
2018-05-07T16:11:20.414Z,95.63
2018-05-07T16:13:13.285Z,95.63
2018-05-07T16:14:13.284Z,95.63
2018-05-07T16:16:06.127Z,95.63
2018-05-07T16:17:06.117Z,95.63
2018-05-07T16:18:58.993Z,95.63
2018-05-07T16:19:58.969Z,95.63
2018-05-07T16:21:51.860Z,95.63
2018-05-07T16:22:51.828Z,95.63
2018-05-07T16:24:44.693Z,95.63
2018-05-07T16:25:44.758Z,95.63
2018-05-07T16:27:37.565Z,95.63
2018-05-07T16:28:37.527Z,95.63
2018-05-07T16:30:30.393Z,101.25
2018-05-07T16:31:30.378Z,101.25
2018-05-07T16:33:23.256Z,101.25
2018-05-07T16:34:23.241Z,101.25
2018-05-07T16:36:16.101Z,95.63
2018-05-07T16:37:16.090Z,95.63
2018-05-07T16:39:08.963Z,90.00
2018-05-07T16:40:08.940Z,90.00
2018-05-07T16:42:01.806Z,90.00
2018-05-07T16:43:01.793Z,90.00
2018-05-07T16:44:54.668Z,84.38
2018-05-07T16:45:54.646Z,84.38
2018-05-07T16:47:47.516Z,84.38
2018-05-07T16:48:47.568Z,84.38
2018-05-07T16:50:40.362Z,78.75
2018-05-07T16:51:40.349Z,78.75
2018-05-07T16:53:33.220Z,78.75
2018-05-07T16:54:33.205Z,78.75
2018-05-07T16:56:26.064Z,73.13
2018-05-07T16:57:26.059Z,73.13
2018-05-07T16:59:18.928Z,73.13
2018-05-07T17:00:18.907Z,73.13
2018-05-07T17:02:11.769Z,73.13
2018-05-07T17:03:11.754Z,78.75
2018-05-07T17:05:04.628Z,78.75
2018-05-07T17:06:04.605Z,78.75
2018-05-07T17:07:57.475Z,73.13
2018-05-07T17:08:57.462Z,73.13
2018-05-07T17:10:50.320Z,73.13
2018-05-07T17:11:50.306Z,73.13
2018-05-07T17:13:43.177Z,73.13
2018-05-07T17:14:43.156Z,73.13
2018-05-07T17:16:36.115Z,73.13
2018-05-07T17:17:36.010Z,73.13
2018-05-07T17:19:28.880Z,73.13
2018-05-07T17:20:28.861Z,67.50
2018-05-07T17:22:21.731Z,67.50
2018-05-07T17:23:21.711Z,67.50
2018-05-07T17:25:14.579Z,67.50
2018-05-07T17:26:14.597Z,67.50
2018-05-07T17:28:07.438Z,67.50
2018-05-07T17:29:07.406Z,67.50
2018-05-07T17:31:00.271Z,61.88
2018-05-07T17:32:00.276Z,61.88
2018-05-07T17:33:53.207Z,61.88
2018-05-07T17:34:53.113Z,61.88
2018-05-07T17:36:46.006Z,61.88
2018-05-07T17:37:45.996Z,61.88
2018-05-07T17:39:38.867Z,61.88
2018-05-07T17:40:38.850Z,56.25
2018-05-07T17:42:31.721Z,56.25
2018-05-07T17:43:31.696Z,56.25
2018-05-07T17:45:24.634Z,56.25
2018-05-07T17:46:24.551Z,56.25
2018-05-07T17:48:17.422Z,50.63
2018-05-07T17:49:17.407Z,50.63
2018-05-07T17:51:10.262Z,50.63
2018-05-07T17:52:10.252Z,50.63
2018-05-07T17:54:03.120Z,50.63
2018-05-07T17:55:03.100Z,50.63
2018-05-07T17:56:55.964Z,45.00
2018-05-07T17:57:55.952Z,45.00
2018-05-07T17:59:48.898Z,45.00
2018-05-07T18:00:48.803Z,45.00
2018-05-07T18:02:41.666Z,39.38
2018-05-07T18:03:41.688Z,39.38
2018-05-07T18:05:34.522Z,39.38
2018-05-07T18:06:34.504Z,39.38
2018-05-07T18:08:27.379Z,39.38
2018-05-07T18:09:27.353Z,33.75
2018-05-07T18:11:20.217Z,33.75
2018-05-07T18:12:20.205Z,33.75
2018-05-07T18:14:13.077Z,33.75
2018-05-07T18:15:13.059Z,33.75